Latest Coastal Weather Observations for Geelong Racecourse

IDV60701

Issued at 12:01 pm EDT Monday 30 March 2015 (issued every 10 minutes, with the page automatically refreshed every 10 minutes)

About coastal observations | Map of coastal stations | Coastal observations for VIC | Marine services | Other Formats
Station Details ID: 087184 Name: GEELONG RACECOURSE Lat: -38.17 Lon: 144.38 Height: 12.9 m
Data from the previous 72 hours. | See also: Recent months at Geelong Racecourse
Date/Time
EDT
Temp

°C
Wind Pressure Rain
since 9am
mm
Weather Cloud Vis
km
Sea
Height
m
Swell
Dir
 
Speed
knots
Gust
knots
hPa Trend Height
m
Period
s
Dir
30/12:00pm 21.1 WNW 5 7 1024.7 - 0.0 - - - - - - -
30/11:30am 20.0 NW 5 9 1024.9 - 0.0 - - - - - - -
30/11:00am 18.4 NW 6 8 1025.2 - 0.0 - - - - - - -
30/10:30am 17.3 WNW 5 6 1025.0 - 0.0 - - - - - - -
30/10:00am 15.5 NW 6 7 1024.9 - 0.0 - - - - - - -
30/09:30am 13.7 NW 5 6 1024.7 - 0.0 - - - - - - -
30/09:00am 11.7 WNW 5 7 1024.6 - 0.0 - - - - - - -
30/08:30am 10.7 W 4 7 1024.2 - - - - - - - - -
30/08:00am 10.0 W 3 4 1023.9 - - - - - - - - -
30/07:30am 10.1 WNW 3 5 1023.6 - - - - - - - - -
30/07:00am 10.3 NW 5 5 1023.3 - - - - - - - - -
30/06:30am 10.1 WNW 5 5 1023.0 - - - - - - - - -
30/06:00am 9.1 NW 2 2 1022.9 - - - - - - - - -
30/05:30am 9.7 CALM 0 0 1022.8 - - - - - - - - -
30/05:00am 10.0 CALM 0 0 1022.6 - - - - - - - - -
30/04:30am 10.4 CALM 0 1 1022.6 - - - - - - - - -
30/04:00am 10.4 NW 2 2 1022.6 - - - - - - - - -
30/03:30am 11.1 NW 3 3 1022.8 - - - - - - - - -
30/03:00am 11.8 NNW 2 3 1023.1 - 0.0 - - - - - - -
30/02:30am 11.5 NW 2 3 1023.4 - - - - - - - - -
30/02:00am 11.8 NW 2 2 1023.5 - - - - - - - - -
30/01:30am 11.8 NW 1 2 1023.6 - - - - - - - - -
30/01:00am 12.1 NW 1 2 1023.7 - - - - - - - - -
30/12:30am 12.6 NW 2 3 1023.7 - - - - - - - - -
30/12:00am 13.9 N 3 4 1023.7 - - - - - - - - -
 
Date/Time
EDT
Temp

°C
Wind Pressure Rain
since 9am
mm
Weather Cloud Vis
km
Sea
Height
m
Swell
Dir
 
Speed
knots
Gust
knots
hPa Trend Height
m
Period
s
Dir
29/11:30pm 14.3 N 3 3 1023.9 - - - - - - - - -
29/11:00pm 14.5 N 3 4 1024.0 - - - - - - - - -
29/10:30pm 14.6 N 3 3 1024.0 - - - - - - - - -
29/10:00pm 13.9 N 1 3 1023.8 - - - - - - - - -
29/09:30pm 14.1 CALM 0 0 1023.6 - - - - - - - - -
29/09:00pm 14.6 CALM 0 0 1023.2 - - - - - - - - -
29/08:30pm 15.2 SSE 2 3 1022.9 - - - - - - - - -
29/08:00pm 15.9 SSE 3 5 1022.6 - - - - - - - - -
29/07:30pm 16.8 SSE 4 6 1022.1 - - - - - - - - -
29/07:00pm 17.6 SSE 7 10 1021.8 - - - - - - - - -
29/06:30pm 18.1 SSE 9 14 1021.4 - - - - - - - - -
29/06:00pm 18.7 S 12 17 1021.1 - - - - - - - - -
29/05:30pm 20.0 SSE 12 16 1020.6 - - - - - - - - -
29/05:00pm 21.0 SSW 9 15 1020.3 - - - - - - - - -
29/04:30pm 23.6 WSW 9 14 1020.2 - 0.0 - - - - - - -
29/04:00pm 24.1 W 8 15 1020.3 - 0.0 - - - - - - -
29/03:30pm 23.5 WNW 7 13 1020.4 - 0.0 - - - - - - -
29/03:00pm 23.6 WNW 7 12 1020.8 - 0.0 - - - - - - -
29/02:30pm 22.9 WNW 9 15 1021.1 - 0.0 - - - - - - -
29/02:00pm 22.6 WNW 8 15 1021.3 - 0.0 - - - - - - -
29/01:30pm 22.2 WNW 10 16 1021.5 - 0.0 - - - - - - -
29/01:00pm 21.0 W 9 14 1021.9 - 0.0 - - - - - - -
29/12:30pm 20.9 WNW 9 14 1022.3 - 0.0 - - - - - - -
29/12:00pm 19.7 WNW 9 14 1022.5 - 0.0 - - - - - - -
29/11:30am 19.1 WNW 8 12 1022.7 - 0.0 - - - - - - -
29/11:00am 17.2 NW 6 9 1022.8 - 0.0 - - - - - - -
29/10:30am 16.0 WNW 7 10 1023.0 - 0.0 - - - - - - -
29/10:00am 14.1 NW 6 8 1022.9 - 0.0 - - - - - - -
29/09:30am 12.4 NNW 2 3 1022.9 - 0.0 - - - - - - -
29/09:00am 10.4 CALM 0 0 1022.9 - 0.0 - - - - - - -
29/08:30am 8.6 WNW 1 2 1022.9 - 0.0 - - - - - - -
29/08:00am 8.3 NW 1 3 1022.4 - 0.0 - - - - - - -
29/07:30am 8.2 NW 4 7 1022.0 - 0.0 - - - - - - -
29/07:00am 8.0 WNW 2 2 1021.9 - 0.0 - - - - - - -
29/06:30am 7.8 WNW 2 3 1021.7 - 0.0 - - - - - - -
29/06:00am 8.4 WNW 3 4 1021.3 - 0.0 - - - - - - -
29/05:30am 8.8 NW 4 6 1020.9 - 0.0 - - - - - - -
29/05:00am 7.7 WNW 2 3 1020.7 - 0.0 - - - - - - -
29/04:30am 8.0 WNW 1 1 1020.5 - 0.0 - - - - - - -
29/04:00am 8.8 NW 1 2 1020.5 - 0.0 - - - - - - -
29/03:30am 9.3 NW 3 3 1020.7 - 0.0 - - - - - - -
29/03:00am 9.4 NW 2 3 1021.0 - 0.0 - - - - - - -
29/02:30am 9.8 NW 2 3 1021.4 - 0.0 - - - - - - -
29/02:00am 10.2 NW 2 3 1021.7 - 0.0 - - - - - - -
29/01:30am 10.2 NW 2 2 1021.9 - 0.0 - - - - - - -
29/01:00am 9.9 WNW 3 4 1022.2 - 0.0 - - - - - - -
29/12:30am 10.5 WNW 2 3 1022.4 - 0.0 - - - - - - -
29/12:00am 10.6 NW 2 2 1022.6 - 0.0 - - - - - - -
 
Date/Time
EDT
Temp

°C
Wind Pressure Rain
since 9am
mm
Weather Cloud Vis
km
Sea
Height
m
Swell
Dir
 
Speed
knots
Gust
knots
hPa Trend Height
m
Period
s
Dir
28/11:30pm 11.2 NW 2 3 1022.7 - 0.0 - - - - - - -
28/11:00pm 11.2 WNW 2 2 1022.7 - 0.0 - - - - - - -
28/10:30pm 11.5 WNW 2 2 1022.8 - 0.0 - - - - - - -
28/10:00pm 11.7 CALM 0 0 1022.8 - 0.0 - - - - - - -
28/09:30pm 12.1 SSW 1 1 1022.7 - 0.0 - - - - - - -
28/09:00pm 12.8 SSW 1 1 1022.5 - 0.0 - - - - - - -
28/08:30pm 13.3 SSW 1 1 1022.4 - 0.0 - - - - - - -
28/08:00pm 14.2 SSW 2 2 1022.3 - 0.0 - - - - - - -
28/07:30pm 15.3 SSW 2 3 1022.2 - 0.0 - - - - - - -
28/07:00pm 16.5 SW 6 8 1022.1 - 0.0 - - - - - - -
28/06:30pm 17.4 SSW 7 9 1021.9 - 0.0 - - - - - - -
28/06:00pm 18.3 SSW 7 10 1022.0 - 0.0 - - - - - - -
28/05:30pm 18.4 WSW 6 10 1022.2 - 0.0 - - - - - - -
28/05:00pm 18.6 SW 7 11 1022.3 - 0.0 - - - - - - -
28/04:30pm 19.2 SW 7 11 1022.6 - 0.0 - - - - - - -
28/04:00pm 18.9 W 4 8 1022.9 - 0.0 - - - - - - -
28/03:30pm 18.2 WNW 6 10 1023.3 - 0.0 - - - - - - -
28/03:00pm 17.4 WNW 6 10 1023.5 - 0.0 - - - - - - -
28/02:30pm 17.5 W 5 8 1023.7 - 0.0 - - - - - - -
28/02:00pm 17.6 W 5 7 1024.2 - 0.0 - - - - - - -
28/01:30pm 17.1 WNW 5 9 1024.5 - 0.0 - - - - - - -
28/01:00pm 16.6 NW 5 8 1024.9 - 0.0 - - - - - - -
28/12:30pm 16.6 WSW 6 9 1025.2 - 0.0 - - - - - - -
28/12:00pm 16.6 W 5 8 1025.5 - 0.0 - - - - - - -
28/11:30am 16.0 WNW 6 8 1025.8 - 0.0 - - - - - - -
28/11:00am 15.9 WNW 6 9 1025.8 - 0.0 - - - - - - -
28/10:30am 15.5 WNW 6 9 1025.8 - 0.0 - - - - - - -
28/10:00am 14.6 WNW 5 8 1026.1 - 0.0 - - - - - - -
28/09:30am 14.3 WNW 5 7 1025.9 - 0.0 - - - - - - -
28/09:00am 13.5 WNW 5 7 1025.7 - 0.0 - - - - - - -
28/08:30am 13.0 W 6 9 1025.5 - - - - - - - - -
28/08:00am 12.5 W 3 6 1025.3 - - - - - - - - -
28/07:30am 12.3 WNW 4 8 1024.9 - - - - - - - - -
28/07:00am 12.3 WNW 3 5 1024.7 - - - - - - - - -
28/06:30am 12.3 WNW 6 8 1024.7 - - - - - - - - -
28/06:00am 12.6 W 5 7 1024.6 - - - - - - - - -
28/05:30am 12.4 WNW 4 6 1024.6 - - - - - - - - -
28/05:00am 12.5 W 4 5 1024.4 - - - - - - - - -
28/04:30am 12.7 W 3 5 1024.4 - - - - - - - - -
28/04:00am 12.9 W 5 7 1024.3 - - - - - - - - -
28/03:30am 12.9 WSW 7 11 1024.5 - - - - - - - - -
28/03:00am 13.2 WSW 6 9 1024.6 - 0.0 - - - - - - -
28/02:30am 13.3 W 6 10 1024.6 - - - - - - - - -
28/02:00am 13.4 WSW 7 10 1024.7 - - - - - - - - -
28/01:30am 13.3 W 5 7 1024.8 - - - - - - - - -
28/01:00am 13.4 W 6 9 1025.0 - - - - - - - - -
28/12:30am 13.3 W 6 9 1025.0 - - - - - - - - -
28/12:00am 13.4 W 6 8 1025.0 - - - - - - - - -
 
Date/Time
EDT
Temp

°C
Wind Pressure Rain
since 9am
mm
Weather Cloud Vis
km
Sea
Height
m
Swell
Dir
 
Speed
knots
Gust
knots
hPa Trend Height
m
Period
s
Dir
27/11:30pm 13.6 W 6 10 1025.2 - - - - - - - - -
27/11:00pm 13.8 WSW 6 9 1025.4 - - - - - - - - -
27/10:30pm 14.0 WSW 7 10 1025.4 - - - - - - - - -
27/10:00pm 14.2 WSW 5 7 1025.3 - - - - - - - - -
27/09:30pm 14.3 W 7 11 1025.0 - - - - - - - - -
27/09:00pm 14.6 WSW 6 9 1025.0 - - - - - - - - -
27/08:30pm 14.9 WSW 6 8 1024.7 - - - - - - - - -
27/08:00pm 15.1 SW 5 8 1024.4 - - - - - - - - -
27/07:30pm 15.7 WSW 5 9 1023.9 - - - - - - - - -
27/07:00pm 16.0 SW 6 9 1023.8 - - - - - - - - -
27/06:30pm 15.9 SSW 8 13 1023.7 - - - - - - - - -
27/06:00pm 16.6 WSW 9 13 1023.4 - - - - - - - - -
27/05:30pm 17.0 SW 7 11 1023.2 - - - - - - - - -
27/05:00pm 16.4 SSW 9 12 1023.2 - - - - - - - - -
27/04:30pm 17.2 SW 8 11 1023.1 - - - - - - - - -
27/04:00pm 16.6 WSW 11 15 1023.2 - - - - - - - - -
27/03:30pm 17.1 WSW 11 18 1023.1 - - - - - - - - -
27/03:00pm 16.6 WSW 12 21 1023.2 - 0.0 - - - - - - -
27/02:30pm 16.9 W 11 18 1023.4 - 0.0 - - - - - - -
27/02:00pm 16.8 WSW 12 17 1023.7 - 0.0 - - - - - - -
27/01:30pm 16.5 WSW 15 23 1023.9 - 0.0 - - - - - - -
27/01:00pm 16.1 W 15 22 1023.9 - 0.0 - - - - - - -
27/12:30pm 16.8 WSW 17 23 1023.9 - 0.0 - - - - - - -

Other Formats:

Comma delimited format used in spreadsheet applications
http://www.bom.gov.au/fwo/IDV60701/IDV60701.94857.axf

JavaScript Object Notation format (JSON) in row-major order
http://www.bom.gov.au/fwo/IDV60701/IDV60701.94857.json